Time;durP1;ratioP1;P1;durP2;ratioP2;P2;SDS_P1;SDS_P2;PMS_P1;PMS_P2;Temp;Humidity;BMP_temperature;BMP_pressure;BME280_temperature;BME280_humidity;BME280_pressure;Samples;Min_cycle;Max_cycle;Signal;HPM_P1;HPM_P2
2023/04/22 00:02:25;;;;;;;8.20;7.40;;;;;;;;;;5046091;28;20207;-93
2023/04/22 00:04:53;;;;;;;9.00;7.13;;;;;;;;;;5030731;28;20286;-93
2023/04/22 00:07:20;;;;;;;7.87;7.07;;;;;;;;;;5048775;28;20210;-93
2023/04/22 00:09:49;;;;;;;6.23;5.63;;;;;;;;;;5048287;28;20203;-90
2023/04/22 00:12:17;;;;;;;6.13;5.63;;;;;;;;;;5054716;28;20239;-92
2023/04/22 00:14:44;;;;;;;6.00;5.50;;;;;;;;;;5034008;28;20195;-93
2023/04/22 00:17:11;;;;;;;5.87;5.37;;;;;;;;;;5033338;28;20286;-93
2023/04/22 00:19:39;;;;;;;4.93;4.53;;;;;;;;;;5046413;28;20282;-92
2023/04/22 00:22:06;;;;;;;5.20;4.80;;;;;;;;;;5046326;28;20207;-93
2023/04/22 00:24:34;;;;;;;5.13;4.70;;;;;;;;;;5041615;28;20192;-92
2023/04/22 00:27:03;;;;;;;5.10;4.60;;;;;;;;;;5041442;28;20208;-91
2023/04/22 00:29:30;;;;;;;5.23;4.77;;;;;;;;;;5043882;28;20210;-93
2023/04/22 00:31:57;;;;;;;4.37;4.00;;;;;;;;;;5048775;28;20234;-93
2023/04/22 00:34:25;;;;;;;4.87;4.43;;;;;;;;;;5050308;28;20318;-93
2023/04/22 00:36:52;;;;;;;4.13;3.83;;;;;;;;;;5049883;28;20209;-91
2023/04/22 00:39:19;;;;;;;4.07;3.77;;;;;;;;;;5047133;28;20286;-93
2023/04/22 00:41:47;;;;;;;3.80;3.50;;;;;;;;;;5043929;28;20200;-92
2023/04/22 00:44:15;;;;;;;3.40;3.20;;;;;;;;;;5051435;28;20258;-93
2023/04/22 00:46:43;;;;;;;4.20;3.20;;;;;;;;;;5052401;28;20214;-92
2023/04/22 00:49:10;;;;;;;4.10;3.10;;;;;;;;;;5052305;28;20207;-93
2023/04/22 00:51:37;;;;;;;3.70;3.20;;;;;;;;;;5052632;28;20291;-93
2023/04/22 00:54:05;;;;;;;3.13;2.93;;;;;;;;;;5050192;28;20207;-93
2023/04/22 00:56:34;;;;;;;3.90;3.10;;;;;;;;;;5046083;28;20205;-93
2023/04/22 00:59:02;;;;;;;3.80;3.50;;;;;;;;;;5048968;28;20204;-91
2023/04/22 01:01:30;;;;;;;3.60;3.30;;;;;;;;;;5024722;28;20282;-93
2023/04/22 01:03:59;;;;;;;3.70;3.40;;;;;;;;;;5044491;28;20208;-93
2023/04/22 01:06:28;;;;;;;3.90;3.60;;;;;;;;;;5049580;28;20204;-94
2023/04/22 01:08:55;;;;;;;4.80;4.37;;;;;;;;;;5049568;28;20211;-93
2023/04/22 01:11:23;;;;;;;4.27;3.90;;;;;;;;;;5052599;28;20217;-91
2023/04/22 01:13:50;;;;;;;5.33;3.83;;;;;;;;;;5048142;28;20207;-92
2023/04/22 01:16:18;;;;;;;3.73;3.43;;;;;;;;;;5041873;28;20280;-92
2023/04/22 01:18:46;;;;;;;4.10;3.80;;;;;;;;;;5050413;28;20277;-93
2023/04/22 01:21:14;;;;;;;4.23;3.83;;;;;;;;;;5044062;28;20231;-93
2023/04/22 01:23:43;;;;;;;5.10;4.07;;;;;;;;;;5050758;28;20214;-93
2023/04/22 01:26:10;;;;;;;3.87;3.50;;;;;;;;;;5048908;28;20206;-93
2023/04/22 01:28:38;;;;;;;4.43;4.03;;;;;;;;;;5044184;28;20203;-91
2023/04/22 01:31:05;;;;;;;3.90;3.60;;;;;;;;;;5045676;28;20203;-94
2023/04/22 01:33:33;;;;;;;4.17;3.80;;;;;;;;;;5051628;28;20211;-94
2023/04/22 01:36:00;;;;;;;4.37;3.67;;;;;;;;;;5046962;28;20232;-92
2023/04/22 01:38:28;;;;;;;3.53;3.23;;;;;;;;;;5047601;28;20203;-93
2023/04/22 01:40:56;;;;;;;3.70;3.40;;;;;;;;;;5043673;28;20208;-93
2023/04/22 01:43:24;;;;;;;3.37;3.07;;;;;;;;;;5052102;28;20227;-93
2023/04/22 01:45:51;;;;;;;3.67;3.03;;;;;;;;;;5048894;28;20286;-93
2023/04/22 01:48:18;;;;;;;3.07;2.50;;;;;;;;;;5047512;28;20202;-93
2023/04/22 01:50:46;;;;;;;2.90;2.70;;;;;;;;;;5046878;28;20200;-93
2023/04/22 01:53:13;;;;;;;2.80;2.60;;;;;;;;;;5048071;28;20222;-91
2023/04/22 01:55:41;;;;;;;2.60;2.40;;;;;;;;;;5052973;28;20226;-93
2023/04/22 01:58:11;;;;;;;2.80;2.60;;;;;;;;;;5051750;28;20211;-93
2023/04/22 02:00:38;;;;;;;3.23;2.93;;;;;;;;;;5044577;28;20199;-92
2023/04/22 02:03:05;;;;;;;4.03;2.80;;;;;;;;;;5047314;28;20196;-92
2023/04/22 02:05:32;;;;;;;2.90;2.70;;;;;;;;;;5030834;28;20282;-92
2023/04/22 02:08:00;;;;;;;3.00;2.80;;;;;;;;;;5048446;28;20207;-93
2023/04/22 02:10:27;;;;;;;2.83;2.60;;;;;;;;;;5051455;28;20217;-93
2023/04/22 02:12:54;;;;;;;3.90;2.53;;;;;;;;;;5041561;28;20232;-93
2023/04/22 02:15:23;;;;;;;2.77;2.40;;;;;;;;;;5045912;28;20230;-92
2023/04/22 02:17:51;;;;;;;2.73;2.53;;;;;;;;;;5043167;28;20192;-92
2023/04/22 02:20:19;;;;;;;2.77;2.57;;;;;;;;;;5042049;28;20196;-92
2023/04/22 02:22:47;;;;;;;2.60;2.40;;;;;;;;;;5046945;28;20204;-93
2023/04/22 02:25:14;;;;;;;2.50;2.30;;;;;;;;;;5048358;28;20203;-92
2023/04/22 02:27:42;;;;;;;2.70;2.50;;;;;;;;;;5047510;28;20203;-93
2023/04/22 02:30:10;;;;;;;2.60;2.40;;;;;;;;;;5045123;28;20204;-93
2023/04/22 02:32:39;;;;;;;3.77;2.87;;;;;;;;;;5052710;28;20226;-92
2023/04/22 02:35:06;;;;;;;2.80;2.60;;;;;;;;;;5045585;28;20207;-93
2023/04/22 02:37:34;;;;;;;2.70;2.50;;;;;;;;;;5050919;28;20207;-92
2023/04/22 02:40:02;;;;;;;4.40;2.30;;;;;;;;;;5021500;28;20200;-91
2023/04/22 02:42:30;;;;;;;2.60;2.40;;;;;;;;;;5046061;28;20292;-93
2023/04/22 02:44:57;;;;;;;2.77;2.57;;;;;;;;;;5046290;28;20192;-91
2023/04/22 02:47:24;;;;;;;2.93;2.63;;;;;;;;;;5046113;28;20200;-93
2023/04/22 02:49:53;;;;;;;2.77;2.30;;;;;;;;;;5049146;28;20218;-93
2023/04/22 02:52:21;;;;;;;2.63;2.40;;;;;;;;;;5048693;28;20215;-93
2023/04/22 02:54:48;;;;;;;2.73;2.53;;;;;;;;;;5052720;28;20281;-92
2023/04/22 02:57:15;;;;;;;3.37;2.73;;;;;;;;;;5054477;28;20191;-93
2023/04/22 02:59:42;;;;;;;2.63;2.43;;;;;;;;;;5051237;28;20209;-93
2023/04/22 03:02:10;;;;;;;2.60;2.40;;;;;;;;;;5050106;28;20199;-93
2023/04/22 03:04:38;;;;;;;2.77;2.57;;;;;;;;;;5053610;28;20206;-92
2023/04/22 03:07:07;;;;;;;3.03;2.80;;;;;;;;;;5051191;28;20204;-92
2023/04/22 03:09:34;;;;;;;3.30;3.10;;;;;;;;;;5048388;28;20214;-93
2023/04/22 03:12:02;;;;;;;3.20;3.00;;;;;;;;;;5052371;28;20205;-89
2023/04/22 03:14:29;;;;;;;3.80;3.50;;;;;;;;;;5056138;28;20214;-92
2023/04/22 03:16:57;;;;;;;2.83;2.60;;;;;;;;;;5050294;28;20199;-93
2023/04/22 03:19:24;;;;;;;3.30;3.00;;;;;;;;;;5052110;28;20207;-90
2023/04/22 03:21:51;;;;;;;3.23;2.70;;;;;;;;;;5050025;28;20208;-92
2023/04/22 03:24:20;;;;;;;2.80;2.60;;;;;;;;;;5052780;28;20237;-91
2023/04/22 03:26:48;;;;;;;2.97;2.77;;;;;;;;;;5056182;28;20225;-92
2023/04/22 03:29:15;;;;;;;2.73;2.53;;;;;;;;;;5035115;28;20290;-93
2023/04/22 03:31:42;;;;;;;3.13;2.80;;;;;;;;;;5055551;28;20196;-92
2023/04/22 03:34:09;;;;;;;2.53;2.33;;;;;;;;;;5050129;28;20231;-93
2023/04/22 03:36:37;;;;;;;2.87;2.60;;;;;;;;;;5057697;28;20293;-93
2023/04/22 03:39:05;;;;;;;2.57;2.37;;;;;;;;;;5055055;28;20204;-91
2023/04/22 03:41:33;;;;;;;3.30;2.40;;;;;;;;;;5057191;28;20210;-93
2023/04/22 03:44:01;;;;;;;2.57;2.37;;;;;;;;;;5049196;28;20245;-93
2023/04/22 03:46:28;;;;;;;3.40;2.40;;;;;;;;;;5050713;28;20211;-94
2023/04/22 03:48:55;;;;;;;2.30;2.20;;;;;;;;;;5054416;28;20206;-92
2023/04/22 03:51:23;;;;;;;2.77;2.03;;;;;;;;;;5053168;28;20203;-93
2023/04/22 03:53:50;;;;;;;2.33;2.13;;;;;;;;;;5053132;28;20228;-93
2023/04/22 03:56:18;;;;;;;2.60;2.40;;;;;;;;;;5055985;28;20202;-92
2023/04/22 03:58:46;;;;;;;3.10;2.37;;;;;;;;;;5054869;28;20282;-93
2023/04/22 04:01:13;;;;;;;3.00;2.20;;;;;;;;;;5056001;28;20200;-93
2023/04/22 04:03:41;;;;;;;2.23;2.03;;;;;;;;;;5035943;28;20210;-94
2023/04/22 04:06:08;;;;;;;2.50;2.30;;;;;;;;;;5031884;28;20207;-92
2023/04/22 04:08:36;;;;;;;2.20;2.00;;;;;;;;;;5029727;28;20202;-92
2023/04/22 04:11:03;;;;;;;2.30;2.10;;;;;;;;;;5046063;28;20203;-92
2023/04/22 04:13:31;;;;;;;2.37;2.17;;;;;;;;;;5043681;28;20227;-93
2023/04/22 04:16:00;;;;;;;2.70;2.50;;;;;;;;;;5045271;28;20196;-92
2023/04/22 04:18:28;;;;;;;2.20;1.97;;;;;;;;;;5047303;28;20200;-93
2023/04/22 04:20:55;;;;;;;3.13;2.63;;;;;;;;;;5044254;28;20270;-93
2023/04/22 04:23:22;;;;;;;2.30;2.10;;;;;;;;;;5045220;28;20215;-92
2023/04/22 04:25:50;;;;;;;2.67;2.23;;;;;;;;;;5044288;28;20290;-92
2023/04/22 04:28:19;;;;;;;2.40;2.20;;;;;;;;;;5045726;28;20267;-94
2023/04/22 04:30:47;;;;;;;2.50;2.30;;;;;;;;;;5044238;28;20235;-92
2023/04/22 04:33:16;;;;;;;2.30;2.10;;;;;;;;;;5040784;28;20302;-92
2023/04/22 04:35:44;;;;;;;2.47;2.27;;;;;;;;;;5044320;28;20246;-94
2023/04/22 04:38:13;;;;;;;2.30;2.10;;;;;;;;;;5043913;28;20196;-93
2023/04/22 04:40:44;;;;;;;2.07;1.87;;;;;;;;;;5021551;28;20208;-93
2023/04/22 04:43:11;;;;;;;3.00;2.03;;;;;;;;;;5047125;28;20239;-94
2023/04/22 04:45:45;;;;;;;2.57;2.37;;;;;;;;;;5028492;28;20203;-93
2023/04/22 04:48:13;;;;;;;1.83;1.73;;;;;;;;;;5045632;28;20245;-91
2023/04/22 04:50:42;;;;;;;2.30;2.10;;;;;;;;;;5046571;28;20208;-94
2023/04/22 04:53:09;;;;;;;2.07;1.97;;;;;;;;;;5051480;28;20215;-93
2023/04/22 04:55:37;;;;;;;1.87;1.77;;;;;;;;;;5050976;28;20204;-92
2023/04/22 04:58:04;;;;;;;3.17;2.00;;;;;;;;;;5045401;28;20260;-92
2023/04/22 05:00:32;;;;;;;2.47;1.97;;;;;;;;;;5046618;28;20291;-92
2023/04/22 05:02:59;;;;;;;2.50;2.13;;;;;;;;;;5049433;28;20218;-93
2023/04/22 05:05:27;;;;;;;2.70;2.50;;;;;;;;;;5050934;28;20200;-92
2023/04/22 05:07:56;;;;;;;3.77;2.10;;;;;;;;;;5048309;28;20200;-93
2023/04/22 05:10:24;;;;;;;3.83;2.47;;;;;;;;;;5050750;28;20196;-91
2023/04/22 05:12:51;;;;;;;2.90;2.50;;;;;;;;;;5050494;28;20199;-93
2023/04/22 05:15:18;;;;;;;2.37;2.17;;;;;;;;;;5027632;28;20201;-92
2023/04/22 05:17:45;;;;;;;3.50;2.50;;;;;;;;;;5043115;28;20203;-93
2023/04/22 05:20:13;;;;;;;2.00;1.90;;;;;;;;;;5042821;28;20206;-93
2023/04/22 05:22:42;;;;;;;3.23;2.80;;;;;;;;;;5044818;28;20208;-93
2023/04/22 05:25:11;;;;;;;2.40;2.27;;;;;;;;;;5044755;28;20192;-93
2023/04/22 05:27:39;;;;;;;2.63;2.40;;;;;;;;;;5046369;28;20281;-92
2023/04/22 05:30:07;;;;;;;2.87;2.50;;;;;;;;;;5031222;28;20204;-94
2023/04/22 05:32:34;;;;;;;2.23;2.03;;;;;;;;;;5050597;28;20278;-92
2023/04/22 05:35:01;;;;;;;2.63;2.43;;;;;;;;;;5048611;28;20220;-93
2023/04/22 05:37:29;;;;;;;2.40;2.30;;;;;;;;;;5044764;28;20313;-93
2023/04/22 05:39:56;;;;;;;2.30;2.10;;;;;;;;;;5042308;28;20262;-92
2023/04/22 05:42:25;;;;;;;2.60;2.40;;;;;;;;;;5044816;28;20232;-93
2023/04/22 05:44:53;;;;;;;4.00;2.50;;;;;;;;;;5033764;28;20206;-93
2023/04/22 05:47:20;;;;;;;3.47;2.70;;;;;;;;;;5033504;28;20227;-92
2023/04/22 05:49:47;;;;;;;3.50;2.63;;;;;;;;;;5045275;28;20219;-91
2023/04/22 05:52:15;;;;;;;3.60;2.73;;;;;;;;;;5050594;28;20202;-93
2023/04/22 05:54:42;;;;;;;2.70;2.43;;;;;;;;;;5044624;28;20216;-94
2023/04/22 05:57:10;;;;;;;2.80;2.60;;;;;;;;;;5049276;28;20206;-92
2023/04/22 05:59:39;;;;;;;4.00;2.23;;;;;;;;;;5023560;28;20206;-93
2023/04/22 06:02:06;;;;;;;2.57;2.40;;;;;;;;;;5025361;28;20192;-93
2023/04/22 06:04:33;;;;;;;3.93;2.27;;;;;;;;;;5049259;28;20229;-94
2023/04/22 06:07:01;;;;;;;2.93;2.60;;;;;;;;;;5028105;28;20207;-91
2023/04/22 06:09:28;;;;;;;2.83;2.63;;;;;;;;;;5053707;28;20199;-92
2023/04/22 06:11:57;;;;;;;2.77;2.57;;;;;;;;;;5041192;28;20203;-94
2023/04/22 06:14:24;;;;;;;2.60;2.27;;;;;;;;;;5042380;28;20231;-92
2023/04/22 06:16:53;;;;;;;4.13;2.43;;;;;;;;;;5043925;28;20264;-90
2023/04/22 06:19:20;;;;;;;2.60;2.37;;;;;;;;;;5036276;28;20246;-90
2023/04/22 06:21:48;;;;;;;6.30;2.50;;;;;;;;;;5044558;28;20212;-93
2023/04/22 06:24:15;;;;;;;2.93;2.20;;;;;;;;;;5045662;28;20202;-94
2023/04/22 06:26:42;;;;;;;3.20;2.10;;;;;;;;;;5045167;28;20204;-93
2023/04/22 06:29:10;;;;;;;2.63;2.43;;;;;;;;;;5049433;28;20200;-92
2023/04/22 06:31:37;;;;;;;2.60;2.20;;;;;;;;;;5042646;28;20208;-91
2023/04/22 06:34:06;;;;;;;3.30;2.47;;;;;;;;;;5047242;28;20237;-91
2023/04/22 06:36:36;;;;;;;2.20;2.00;;;;;;;;;;5043798;28;20286;-91
2023/04/22 06:39:04;;;;;;;2.30;2.10;;;;;;;;;;5043625;28;20195;-94
2023/04/22 06:41:32;;;;;;;3.27;2.47;;;;;;;;;;5048541;28;20208;-92
2023/04/22 06:43:59;;;;;;;2.40;2.20;;;;;;;;;;5023027;28;20305;-92
2023/04/22 06:46:26;;;;;;;4.03;2.40;;;;;;;;;;5023973;28;20232;-94
2023/04/22 06:48:54;;;;;;;2.43;2.10;;;;;;;;;;5039382;28;20199;-93
2023/04/22 06:51:22;;;;;;;2.10;1.90;;;;;;;;;;5047353;28;20199;-94
2023/04/22 06:53:49;;;;;;;2.80;2.10;;;;;;;;;;5038924;28;20315;-93
2023/04/22 06:56:17;;;;;;;2.08;1.98;;;;;;;;;;5022533;28;20296;-90
2023/04/22 06:58:44;;;;;;;2.90;2.20;;;;;;;;;;5022932;28;20203;-93
2023/04/22 07:01:12;;;;;;;3.20;1.90;;;;;;;;;;5040120;28;20216;-92
2023/04/22 07:03:39;;;;;;;2.33;2.10;;;;;;;;;;5045912;28;20329;-92
2023/04/22 07:06:07;;;;;;;5.93;2.03;;;;;;;;;;5014232;28;20196;-90
2023/04/22 07:08:36;;;;;;;2.20;1.98;;;;;;;;;;5028377;28;20211;-93
2023/04/22 07:11:03;;;;;;;2.20;2.10;;;;;;;;;;5040026;28;20214;-91
2023/04/22 07:13:32;;;;;;;3.28;2.30;;;;;;;;;;5026823;28;20203;-90
2023/04/22 07:16:00;;;;;;;3.70;2.00;;;;;;;;;;5042884;28;20226;-92
2023/04/22 07:18:27;;;;;;;2.85;1.98;;;;;;;;;;5042245;28;20199;-93
2023/04/22 07:20:55;;;;;;;2.95;2.00;;;;;;;;;;5043487;28;20386;-91
2023/04/22 07:23:22;;;;;;;2.00;1.90;;;;;;;;;;5050270;28;20234;-92
2023/04/22 07:25:51;;;;;;;2.05;1.85;;;;;;;;;;5026431;28;20200;-91
2023/04/22 07:28:18;;;;;;;3.88;1.88;;;;;;;;;;5043598;28;20287;-92
2023/04/22 07:30:46;;;;;;;2.97;2.20;;;;;;;;;;5038066;28;20275;-92
2023/04/22 07:33:13;;;;;;;2.97;2.10;;;;;;;;;;5042821;28;20200;-92
2023/04/22 07:35:40;;;;;;;3.28;2.20;;;;;;;;;;5048278;28;20314;-92
2023/04/22 07:38:08;;;;;;;4.57;2.30;;;;;;;;;;5041505;28;20207;-92
2023/04/22 07:40:35;;;;;;;2.45;2.17;;;;;;;;;;5048114;28;20199;-93
2023/04/22 07:43:05;;;;;;;3.03;1.98;;;;;;;;;;5051537;28;20235;-92
2023/04/22 07:45:32;;;;;;;3.88;2.25;;;;;;;;;;5040934;28;20215;-92
2023/04/22 07:48:00;;;;;;;2.17;2.00;;;;;;;;;;5048118;28;20259;-92
2023/04/22 07:50:27;;;;;;;3.05;2.03;;;;;;;;;;5050997;28;20211;-94
2023/04/22 07:52:55;;;;;;;2.65;1.95;;;;;;;;;;5049306;28;20201;-90
2023/04/22 07:55:22;;;;;;;3.13;2.08;;;;;;;;;;5053187;28;20234;-91
2023/04/22 07:57:49;;;;;;;2.20;2.00;;;;;;;;;;5046734;28;20208;-92
2023/04/22 08:00:18;;;;;;;2.08;1.90;;;;;;;;;;5045220;28;20262;-90
2023/04/22 08:02:46;;;;;;;2.28;1.90;;;;;;;;;;5049917;28;20255;-90
2023/04/22 08:05:13;;;;;;;4.78;2.13;;;;;;;;;;5056479;28;20204;-91
2023/04/22 08:07:41;;;;;;;3.20;1.95;;;;;;;;;;5050937;28;20207;-92
2023/04/22 08:10:08;;;;;;;4.15;2.00;;;;;;;;;;5042280;28;20287;-91
2023/04/22 08:12:36;;;;;;;2.90;2.00;;;;;;;;;;5050814;28;20294;-91
2023/04/22 08:15:03;;;;;;;3.05;2.03;;;;;;;;;;5051118;28;20229;-93
2023/04/22 08:17:32;;;;;;;1.88;1.65;;;;;;;;;;5036387;28;20207;-91
2023/04/22 08:19:59;;;;;;;1.92;1.65;;;;;;;;;;5056122;28;20264;-90
2023/04/22 08:22:27;;;;;;;2.95;1.98;;;;;;;;;;5045259;28;20200;-92
2023/04/22 08:24:54;;;;;;;3.78;1.92;;;;;;;;;;5025780;28;20212;-91
2023/04/22 08:27:22;;;;;;;2.63;1.90;;;;;;;;;;5044767;28;20211;-92
2023/04/22 08:29:49;;;;;;;1.88;1.77;;;;;;;;;;5040691;28;20211;-92
2023/04/22 08:32:18;;;;;;;2.42;1.80;;;;;;;;;;5046098;28;20211;-92
2023/04/22 08:34:47;;;;;;;2.35;1.48;;;;;;;;;;5051085;28;20220;-91
2023/04/22 08:37:14;;;;;;;2.53;1.70;;;;;;;;;;5038291;28;20310;-92
2023/04/22 08:39:42;;;;;;;2.20;1.60;;;;;;;;;;5045677;28;20200;-92
2023/04/22 08:42:09;;;;;;;2.67;1.73;;;;;;;;;;5041562;28;20234;-91
2023/04/22 08:44:37;;;;;;;1.70;1.50;;;;;;;;;;5044789;28;20226;-91
2023/04/22 08:47:05;;;;;;;2.55;1.52;;;;;;;;;;5030821;28;20231;-90
2023/04/22 08:49:32;;;;;;;3.63;1.83;;;;;;;;;;5052046;28;20208;-90
2023/04/22 08:52:01;;;;;;;1.73;1.60;;;;;;;;;;5038683;28;20280;-91
2023/04/22 08:54:28;;;;;;;1.50;1.40;;;;;;;;;;5042845;28;20251;-91
2023/04/22 08:56:56;;;;;;;1.45;1.45;;;;;;;;;;5037767;28;20212;-93
2023/04/22 08:59:23;;;;;;;1.60;1.50;;;;;;;;;;5045103;28;20227;-91
2023/04/22 09:01:53;;;;;;;1.83;1.50;;;;;;;;;;5051536;28;20217;-94
2023/04/22 09:04:20;;;;;;;3.88;1.92;;;;;;;;;;5039421;28;20212;-93
2023/04/22 09:06:48;;;;;;;3.10;1.48;;;;;;;;;;5047221;28;20210;-93
2023/04/22 09:09:17;;;;;;;5.50;2.05;;;;;;;;;;5045674;28;20207;-92
2023/04/22 09:11:44;;;;;;;5.32;1.80;;;;;;;;;;5044236;28;20287;-92
2023/04/22 09:14:12;;;;;;;1.63;1.50;;;;;;;;;;5042456;28;20234;-91
2023/04/22 09:16:42;;;;;;;3.58;2.17;;;;;;;;;;5052834;28;20204;-91
2023/04/22 09:19:12;;;;;;;3.30;1.63;;;;;;;;;;5027832;28;20203;-91
2023/04/22 09:21:40;;;;;;;1.77;1.50;;;;;;;;;;5044466;28;20208;-91
2023/04/22 09:24:08;;;;;;;3.65;1.70;;;;;;;;;;5029157;28;20286;-91
2023/04/22 09:26:40;;;;;;;3.25;1.70;;;;;;;;;;5040763;28;20287;-91
2023/04/22 09:29:08;;;;;;;2.63;1.35;;;;;;;;;;5034047;28;20226;-90
2023/04/22 09:31:36;;;;;;;1.52;1.38;;;;;;;;;;5037621;28;20206;-92
2023/04/22 09:34:04;;;;;;;2.05;1.65;;;;;;;;;;5030206;28;20295;-91
2023/04/22 09:36:33;;;;;;;1.63;1.50;;;;;;;;;;5039521;28;20302;-91
2023/04/22 09:39:02;;;;;;;3.58;1.27;;;;;;;;;;5043920;28;20225;-92
2023/04/22 09:41:30;;;;;;;2.25;1.83;;;;;;;;;;5034751;28;20204;-90
2023/04/22 09:43:59;;;;;;;2.88;1.80;;;;;;;;;;5038731;28;20343;-91
2023/04/22 09:46:27;;;;;;;2.42;1.50;;;;;;;;;;5039067;28;20314;-91
2023/04/22 09:48:56;;;;;;;2.35;1.90;;;;;;;;;;5041537;28;20299;-89
2023/04/22 09:51:23;;;;;;;2.42;1.50;;;;;;;;;;5047045;28;20278;-91
2023/04/22 09:54:03;;;;;;;2.17;1.60;;;;;;;;;;5027398;28;20199;-91
2023/04/22 09:56:44;;;;;;;1.73;1.50;;;;;;;;;;5040084;28;20218;-90
2023/04/22 09:59:13;;;;;;;4.43;1.65;;;;;;;;;;5023206;28;20287;-90
2023/04/22 10:01:41;;;;;;;1.75;1.50;;;;;;;;;;5047918;28;20291;-92
2023/04/22 10:04:10;;;;;;;2.25;1.50;;;;;;;;;;5046787;28;20211;-92
2023/04/22 10:06:37;;;;;;;4.30;1.77;;;;;;;;;;5050544;28;20235;-89
2023/04/22 10:09:05;;;;;;;1.98;1.63;;;;;;;;;;5039122;28;20212;-92
2023/04/22 10:11:33;;;;;;;2.35;1.73;;;;;;;;;;5052955;28;20214;-92
2023/04/22 10:14:01;;;;;;;3.63;1.50;;;;;;;;;;5050318;28;20203;-91
2023/04/22 10:16:32;;;;;;;2.92;1.77;;;;;;;;;;5024480;28;20267;-91
2023/04/22 10:19:00;;;;;;;1.70;1.60;;;;;;;;;;5044082;28;20294;-91
2023/04/22 10:21:28;;;;;;;2.92;1.70;;;;;;;;;;5043619;28;20208;-91
2023/04/22 10:23:55;;;;;;;2.05;1.55;;;;;;;;;;5046627;28;20208;-91
2023/04/22 10:26:42;;;;;;;3.22;1.80;;;;;;;;;;5039932;28;20215;-91
2023/04/22 10:29:11;;;;;;;2.97;1.70;;;;;;;;;;5048499;28;20209;-90
2023/04/22 10:31:40;;;;;;;4.40;1.73;;;;;;;;;;5045019;28;20242;-92
2023/04/22 10:34:11;;;;;;;3.30;1.98;;;;;;;;;;5038430;28;20218;-91
2023/04/22 10:36:53;;;;;;;4.65;1.63;;;;;;;;;;5041734;28;20235;-91
2023/04/22 10:39:20;;;;;;;5.07;2.05;;;;;;;;;;5043185;28;20212;-91
2023/04/22 10:41:52;;;;;;;2.55;1.77;;;;;;;;;;5040145;28;20208;-90
2023/04/22 10:44:20;;;;;;;1.85;1.50;;;;;;;;;;5038744;28;20245;-91
2023/04/22 10:46:58;;;;;;;2.08;1.70;;;;;;;;;;5046680;28;20199;-91
2023/04/22 10:49:26;;;;;;;1.65;1.50;;;;;;;;;;5037517;28;20215;-91
2023/04/22 10:51:55;;;;;;;4.03;1.60;;;;;;;;;;5041800;28;20206;-91
2023/04/22 10:54:40;;;;;;;3.30;1.50;;;;;;;;;;5028989;28;20314;-91
2023/04/22 10:57:08;;;;;;;4.28;1.65;;;;;;;;;;5037087;28;20203;-91
2023/04/22 10:59:36;;;;;;;1.73;1.35;;;;;;;;;;5042829;28;20250;-90
2023/04/22 11:02:06;;;;;;;2.20;1.40;;;;;;;;;;5044088;28;20209;-92
2023/04/22 11:04:33;;;;;;;3.10;2.20;;;;;;;;;;5033014;28;20203;-91
2023/04/22 11:07:16;;;;;;;1.67;1.40;;;;;;;;;;5045263;28;20204;-91
2023/04/22 11:09:45;;;;;;;2.65;1.50;;;;;;;;;;5029539;28;20207;-90
2023/04/22 11:12:27;;;;;;;1.48;1.38;;;;;;;;;;5052894;28;20218;-91
2023/04/22 11:14:55;;;;;;;2.20;1.55;;;;;;;;;;5034620;28;20228;-91
2023/04/22 11:17:23;;;;;;;1.98;1.50;;;;;;;;;;5041301;28;20301;-91
2023/04/22 11:19:55;;;;;;;1.67;1.52;;;;;;;;;;5048838;28;20207;-91
2023/04/22 11:22:22;;;;;;;1.70;1.50;;;;;;;;;;5037158;28;20207;-92
2023/04/22 11:24:54;;;;;;;6.65;1.88;;;;;;;;;;5044214;28;20247;-91
2023/04/22 11:27:25;;;;;;;3.92;1.50;;;;;;;;;;5056220;28;20204;-91
2023/04/22 11:30:02;;;;;;;1.60;1.50;;;;;;;;;;5043947;28;20197;-91
2023/04/22 11:32:31;;;;;;;1.80;1.50;;;;;;;;;;5044588;28;20298;-91
2023/04/22 11:34:59;;;;;;;3.67;1.45;;;;;;;;;;5039338;28;20227;-91
2023/04/22 11:37:27;;;;;;;2.63;1.27;;;;;;;;;;5022130;28;20219;-92
2023/04/22 11:39:54;;;;;;;2.00;1.50;;;;;;;;;;5028935;28;20200;-92
2023/04/22 11:42:22;;;;;;;1.95;1.38;;;;;;;;;;5049927;28;20207;-91
2023/04/22 11:44:51;;;;;;;2.17;1.52;;;;;;;;;;5023072;28;20208;-91
2023/04/22 11:47:19;;;;;;;1.73;1.50;;;;;;;;;;5045407;28;20195;-91
2023/04/22 11:49:58;;;;;;;1.80;1.30;;;;;;;;;;5050394;28;20235;-92
2023/04/22 11:52:25;;;;;;;1.60;1.50;;;;;;;;;;5043918;28;20199;-92
2023/04/22 11:54:52;;;;;;;2.33;1.42;;;;;;;;;;5051361;28;20207;-91
2023/04/22 11:57:20;;;;;;;2.63;1.60;;;;;;;;;;5046083;28;20200;-91
2023/04/22 11:59:58;;;;;;;1.35;1.20;;;;;;;;;;5043603;28;20201;-91
2023/04/22 12:02:25;;;;;;;2.70;1.52;;;;;;;;;;5038657;28;20245;-91
2023/04/22 12:04:52;;;;;;;2.22;1.40;;;;;;;;;;5036548;28;20214;-91
2023/04/22 12:07:21;;;;;;;1.45;1.23;;;;;;;;;;5022508;28;20196;-89
2023/04/22 12:09:49;;;;;;;3.15;1.65;;;;;;;;;;5049673;28;20207;-91
2023/04/22 12:12:17;;;;;;;1.98;1.30;;;;;;;;;;5054550;28;20230;-91
2023/04/22 12:14:47;;;;;;;1.90;1.50;;;;;;;;;;5044081;28;20208;-91
2023/04/22 12:17:15;;;;;;;1.67;1.58;;;;;;;;;;5038240;28;20228;-92
2023/04/22 12:19:47;;;;;;;6.07;1.55;;;;;;;;;;5030225;28;20199;-90
2023/04/22 12:22:24;;;;;;;2.35;1.15;;;;;;;;;;5045980;28;20280;-92
2023/04/22 12:24:53;;;;;;;1.95;1.55;;;;;;;;;;5022212;28;20280;-89
2023/04/22 12:27:20;;;;;;;1.35;1.27;;;;;;;;;;5048468;28;20196;-93
2023/04/22 12:29:54;;;;;;;2.00;1.60;;;;;;;;;;5041777;28;20266;-92
2023/04/22 12:32:22;;;;;;;2.30;1.80;;;;;;;;;;5029866;28;20210;-92
2023/04/22 12:34:49;;;;;;;3.70;1.70;;;;;;;;;;5048051;28;20214;-91
2023/04/22 12:37:17;;;;;;;2.30;2.10;;;;;;;;;;5047061;28;20308;-92
2023/04/22 12:39:44;;;;;;;2.72;1.63;;;;;;;;;;5043957;28;20211;-91
2023/04/22 12:42:13;;;;;;;1.65;1.38;;;;;;;;;;5047125;28;20192;-94
2023/04/22 12:44:42;;;;;;;2.33;1.45;;;;;;;;;;5055140;28;20181;-96
2023/04/22 12:47:09;;;;;;;2.72;1.73;;;;;;;;;;5049205;28;20204;-89
2023/04/22 12:49:38;;;;;;;3.63;1.83;;;;;;;;;;5045218;28;20211;-90
2023/04/22 12:52:05;;;;;;;2.00;1.40;;;;;;;;;;5044343;28;20286;-90
2023/04/22 12:54:32;;;;;;;1.88;1.40;;;;;;;;;;5028176;28;20207;-90
2023/04/22 12:57:01;;;;;;;1.33;1.20;;;;;;;;;;5043975;28;20215;-92
2023/04/22 12:59:29;;;;;;;1.33;1.23;;;;;;;;;;5047816;28;20204;-90
2023/04/22 13:01:57;;;;;;;1.45;1.30;;;;;;;;;;5047635;28;20311;-90
2023/04/22 13:04:24;;;;;;;1.27;1.17;;;;;;;;;;5049525;28;20210;-89
2023/04/22 13:06:55;;;;;;;2.00;1.40;;;;;;;;;;5045030;28;20212;-91
2023/04/22 13:09:22;;;;;;;2.00;1.40;;;;;;;;;;5027499;28;20199;-90
2023/04/22 13:11:50;;;;;;;2.25;1.25;;;;;;;;;;5048299;28;20227;-89
2023/04/22 13:14:17;;;;;;;2.08;1.50;;;;;;;;;;5041939;28;20274;-91
2023/04/22 13:16:47;;;;;;;2.03;1.40;;;;;;;;;;5042877;28;20231;-89
2023/04/22 13:19:14;;;;;;;3.00;1.80;;;;;;;;;;5046815;28;20294;-91
2023/04/22 13:21:41;;;;;;;1.50;1.40;;;;;;;;;;5022195;28;20207;-92
2023/04/22 13:24:09;;;;;;;1.50;1.40;;;;;;;;;;5049532;28;20209;-91
2023/04/22 13:26:37;;;;;;;3.75;1.50;;;;;;;;;;5030380;28;20205;-93
2023/04/22 13:29:09;;;;;;;2.17;1.52;;;;;;;;;;5049122;28;20210;-95
2023/04/22 13:31:37;;;;;;;1.88;1.45;;;;;;;;;;5044697;28;20195;-93
2023/04/22 13:34:06;;;;;;;1.48;1.38;;;;;;;;;;5045921;28;20222;-92
2023/04/22 13:36:33;;;;;;;2.55;1.60;;;;;;;;;;5045460;28;20227;-92
2023/04/22 13:39:01;;;;;;;2.65;1.30;;;;;;;;;;5044660;28;20226;-90
2023/04/22 13:41:28;;;;;;;1.92;1.50;;;;;;;;;;5039269;28;20223;-92
2023/04/22 13:43:55;;;;;;;2.70;1.50;;;;;;;;;;5044710;28;20323;-92
2023/04/22 13:46:26;;;;;;;3.00;1.40;;;;;;;;;;5047808;28;20306;-96
2023/04/22 13:48:55;;;;;;;2.97;1.40;;;;;;;;;;5042595;28;20318;-92
2023/04/22 13:51:24;;;;;;;1.88;1.42;;;;;;;;;;5045711;28;20212;-94
2023/04/22 13:53:51;;;;;;;5.05;1.70;;;;;;;;;;5050032;28;20225;-94
2023/04/22 13:56:18;;;;;;;1.30;1.20;;;;;;;;;;5041871;28;20310;-88
2023/04/22 13:58:46;;;;;;;2.65;1.65;;;;;;;;;;5042947;28;20549;-92
2023/04/22 14:01:13;;;;;;;1.40;1.30;;;;;;;;;;5044602;28;20208;-95
2023/04/22 14:03:40;;;;;;;1.92;1.10;;;;;;;;;;5027370;28;20234;-93
2023/04/22 14:06:08;;;;;;;2.45;1.52;;;;;;;;;;5048674;28;20211;-91
2023/04/22 14:08:37;;;;;;;1.58;1.40;;;;;;;;;;5021083;28;20199;-91
2023/04/22 14:11:05;;;;;;;1.40;1.30;;;;;;;;;;5042335;28;20204;-91
2023/04/22 14:13:32;;;;;;;6.28;1.75;;;;;;;;;;5046955;28;20234;-91
2023/04/22 14:16:01;;;;;;;3.70;1.67;;;;;;;;;;5029302;28;20234;-91
2023/04/22 14:18:28;;;;;;;1.80;1.50;;;;;;;;;;5042182;28;20203;-89
2023/04/22 14:20:56;;;;;;;2.35;1.42;;;;;;;;;;5042310;28;20230;-90
2023/04/22 14:23:23;;;;;;;2.28;1.60;;;;;;;;;;5040582;28;20232;-90
2023/04/22 14:25:52;;;;;;;2.08;1.77;;;;;;;;;;5048104;28;20211;-89
2023/04/22 14:28:19;;;;;;;1.90;1.40;;;;;;;;;;5046607;28;20259;-91
2023/04/22 14:30:47;;;;;;;2.90;1.90;;;;;;;;;;5049035;28;20257;-92
2023/04/22 14:33:15;;;;;;;2.22;1.40;;;;;;;;;;5054917;28;20199;-94
2023/04/22 14:35:42;;;;;;;2.40;1.70;;;;;;;;;;5045419;28;20231;-96
2023/04/22 14:38:10;;;;;;;1.63;1.52;;;;;;;;;;5042370;28;20226;-93
2023/04/22 14:40:38;;;;;;;3.38;1.90;;;;;;;;;;5044662;28;20206;-95
2023/04/22 14:43:07;;;;;;;2.45;1.58;;;;;;;;;;5025959;28;20280;-94
2023/04/22 14:45:35;;;;;;;2.95;1.75;;;;;;;;;;5028101;28;20200;-96
2023/04/22 14:48:02;;;;;;;2.88;1.60;;;;;;;;;;5019722;28;20307;-90
2023/04/22 14:50:30;;;;;;;3.45;1.90;;;;;;;;;;5023954;28;20204;-92